.
WxDataArchive / Data Records for 2006-03-26
2006-03-25 March 2006 2006-03-27

Data Records for Sunday, 26 March 2006

Time	Temp	Chill	HIndex	Humid	Dewpt	 Wind 	HiWind	WindDir	Rain 	Barom 
-----	----	-----	------	-----	-----	------	------	-------	-----	----- 
00:00	34.0	34.0	34.0	83	29.4	0	3	292	0.00	30.163 
00:05	34.1	34.1	34.1	83	29.5	0	2	292	0.00	30.163 
00:10	34.1	34.1	34.1	83	29.5	0	2	292	0.00	30.163 
00:15	34.1	34.1	34.1	83	29.5	0	2	292	0.00	30.164 
00:20	34.3	34.3	34.3	83	29.7	0	2	292	0.00	30.164 
00:25	34.3	34.3	34.3	83	29.7	0	1	292	0.00	30.164 
00:30	34.4	34.4	34.4	83	29.8	0	1	292	0.00	30.163 
00:35	34.4	34.4	34.4	83	29.8	0	1	292	0.00	30.163 
00:40	34.4	34.4	34.4	83	29.8	0	1	292	0.00	30.163 
00:45	34.4	34.4	34.4	84	30.1	0	2	292	0.00	30.163 
00:50	34.4	34.4	34.4	84	30.1	0	2	292	0.00	30.163 
00:55	34.4	34.4	34.4	84	30.1	0	2	292	0.00	30.163 
01:00	34.4	34.4	34.4	84	30.1	0	1	292	0.00	30.163 
01:05	34.4	34.4	34.4	84	30.1	0	2	292	0.00	30.163 
01:10	34.4	34.4	34.4	84	30.1	0	1	292	0.00	30.163 
01:15	34.4	34.4	34.4	84	30.1	0	2	315	0.00	30.160 
01:20	34.4	34.4	34.4	84	30.1	0	3	270	0.00	30.160 
01:25	34.4	34.4	34.4	84	30.1	0	1	270	0.00	30.160 
01:30	34.4	34.4	34.4	84	30.1	0	3	270	0.00	30.160 
01:35	34.3	34.3	34.3	84	30.0	1	3	292	0.00	30.160 
01:40	34.3	34.3	34.3	84	30.0	0	2	292	0.00	30.160 
01:45	34.3	34.3	34.3	85	30.3	0	1	292	0.00	30.161 
01:50	34.1	34.1	34.1	85	30.1	0	3	292	0.00	30.161 
01:55	34.1	34.1	34.1	85	30.1	0	3	270	0.00	30.161 
02:00	34.1	34.1	34.1	85	30.1	0	1	270	0.00	30.161 
02:05	34.1	34.1	34.1	86	30.4	0	2	270	0.00	30.161 
02:10	34.1	34.1	34.1	86	30.4	0	3	270	0.00	30.161 
02:15	34.1	34.1	34.1	86	30.4	0	3	270	0.00	30.162 
02:20	34.0	34.0	34.0	86	30.3	0	2	270	0.00	30.162 
02:25	34.1	34.1	34.1	86	30.4	0	1	270	0.00	30.162 
02:30	34.1	34.1	34.1	87	30.6	0	2	270	0.00	30.162 
02:35	34.1	34.1	34.1	87	30.6	0	2	270	0.00	30.162 
02:40	34.3	34.3	34.3	87	30.8	0	1	270	0.00	30.162 
02:45	34.4	34.4	34.4	87	30.9	0	2	270	0.00	30.161 
02:50	34.4	34.4	34.4	88	31.2	0	2	270	0.00	30.161 
02:55	34.6	34.6	34.6	88	31.4	0	1	270	0.00	30.161 
03:00	34.6	34.6	34.6	88	31.4	0	2	270	0.00	30.159 
03:05	34.6	34.6	34.6	88	31.4	0	2	270	0.00	30.159 
03:10	34.6	34.6	34.6	88	31.4	0	2	338	0.00	30.159 
03:15	34.6	34.6	34.6	88	31.4	0	2	338	0.00	30.160 
03:20	34.4	34.4	34.4	88	31.2	0	3	292	0.00	30.160 
03:25	34.4	34.4	34.4	88	31.2	0	3	292	0.00	30.160 
03:30	34.3	34.3	34.3	88	31.1	0	2	292	0.00	30.159 
03:35	34.3	34.3	34.3	88	31.1	1	3	270	0.00	30.159 
03:40	34.3	34.3	34.3	88	31.1	0	2	292	0.00	30.159 
03:45	34.3	34.3	34.3	88	31.1	1	3	338	0.00	30.160 
03:50	34.3	34.3	34.3	88	31.1	1	4	270	0.00	30.160 
03:55	34.3	34.3	34.3	88	31.1	0	3	270	0.00	30.160 
04:00	34.1	34.1	34.1	88	30.9	1	3	315	0.00	30.161 
04:05	34.1	34.1	34.1	88	30.9	1	3	292	0.00	30.161 
04:10	34.1	34.1	34.1	88	30.9	1	3	270	0.00	30.161 
04:15	34.1	34.1	34.1	88	30.9	1	3	270	0.00	30.163 
04:20	34.0	34.0	34.0	87	30.5	1	3	270	0.00	30.163 
04:25	33.8	33.8	33.8	87	30.3	0	2	270	0.00	30.163 
04:30	33.8	33.8	33.8	87	30.3	0	2	292	0.00	30.169 
04:35	33.7	33.7	33.7	87	30.3	0	2	292	0.00	30.169 
04:40	33.5	33.5	33.5	87	30.1	0	1	292	0.00	30.169 
04:45	33.4	33.4	33.4	86	29.7	0	2	292	0.00	30.174 
04:50	33.4	33.4	33.4	86	29.7	0	1	292	0.00	30.174 
04:55	33.1	33.1	33.1	86	29.4	0	2	292	0.00	30.174 
05:00	32.9	32.9	32.9	86	29.2	0	1	292	0.00	30.176 
05:05	32.8	32.8	32.8	86	29.1	0	0	---	0.00	30.176 
05:10	32.5	32.5	32.5	86	28.8	0	1	292	0.00	30.176 
05:15	32.4	32.4	32.4	86	28.7	0	1	292	0.00	30.182 
05:20	32.1	32.1	32.1	87	28.7	0	0	---	0.00	30.182 
05:25	31.9	31.9	31.9	87	28.5	0	0	---	0.00	30.182 
05:30	31.6	31.6	31.6	88	28.5	0	0	---	0.00	30.190 
05:35	31.5	31.5	31.5	88	28.4	0	0	---	0.00	30.190 
05:40	31.3	31.3	31.3	88	28.2	0	1	292	0.00	30.190 
05:45	31.2	31.2	31.2	88	28.1	0	0	---	0.00	30.195 
05:50	31.0	31.0	31.0	88	27.9	0	1	292	0.00	30.195 
05:55	30.9	30.9	30.9	87	27.5	0	1	292	0.00	30.195 
06:00	30.9	30.9	30.9	86	27.2	0	2	292	0.00	30.196 
06:05	30.9	30.9	30.9	86	27.2	0	2	292	0.00	30.196 
06:10	30.7	30.7	30.7	84	26.4	0	3	292	0.00	30.196 
06:15	30.7	30.7	30.7	83	26.2	0	2	292	0.00	30.200 
06:20	30.6	30.6	30.6	83	26.1	0	3	292	0.00	30.200 
06:25	30.4	30.4	30.4	82	25.6	0	1	292	0.00	30.200 
06:30	30.3	30.3	30.3	82	25.5	0	1	292	0.00	30.206 
06:35	30.1	30.1	30.1	81	25.0	0	1	292	0.00	30.206 
06:40	30.1	30.1	30.1	81	25.0	0	2	270	0.00	30.206 
06:45	30.1	30.1	30.1	80	24.7	0	2	270	0.00	30.213 
06:50	30.1	30.1	30.1	80	24.7	0	3	270	0.00	30.213 
06:55	30.1	30.1	30.1	79	24.4	0	2	270	0.00	30.213 
07:00	30.3	30.3	30.3	77	24.0	0	2	270	0.00	30.215 
07:05	30.4	30.4	30.4	77	24.1	0	1	270	0.00	30.215 
07:10	30.7	30.7	30.7	76	24.0	0	2	270	0.00	30.215 
07:15	31.0	31.0	31.0	76	24.3	0	2	292	0.00	30.222 
07:20	31.3	31.3	31.3	75	24.3	0	2	292	0.00	30.222 
07:25	31.6	31.6	31.6	73	24.0	1	4	292	0.00	30.222 
07:30	32.1	32.1	32.1	73	24.4	1	3	292	0.00	30.228 
07:35	32.4	32.4	32.4	72	24.4	1	5	338	0.00	30.228 
07:40	32.7	32.7	32.7	71	24.4	1	5	338	0.00	30.228 
07:45	32.9	32.9	32.9	71	24.5	1	3	338	0.00	30.230 
07:50	33.2	33.2	33.2	70	24.5	1	5	0	0.00	30.230 
07:55	33.5	33.5	33.5	69	24.4	2	5	292	0.00	30.230 
08:00	33.5	33.5	33.5	69	24.4	1	4	0	0.00	30.234 
08:05	33.8	33.8	33.8	68	24.4	2	4	338	0.00	30.234 
08:10	34.3	34.3	34.3	68	24.9	2	4	338	0.00	30.234 
08:15	34.7	34.7	34.7	66	24.5	1	4	315	0.00	30.240 
08:20	35.0	35.0	35.0	65	24.4	2	5	270	0.00	30.240 
08:25	35.2	35.2	35.2	63	23.9	1	3	338	0.00	30.240 
08:30	35.5	35.5	35.5	64	24.5	1	4	292	0.00	30.240 
08:35	35.8	35.8	35.8	64	24.8	2	5	338	0.00	30.240 
08:40	36.0	36.0	36.0	63	24.6	2	5	270	0.00	30.240 
08:45	36.5	36.5	36.5	60	24.0	2	5	315	0.00	30.241 
08:50	36.8	36.8	36.8	60	24.2	2	4	22	0.00	30.241 
08:55	37.2	37.2	37.2	61	25.0	1	5	0	0.00	30.241 
09:00	37.9	37.9	37.9	60	25.3	1	3	0	0.00	30.239 
09:05	38.3	38.3	38.3	58	24.8	2	4	270	0.00	30.239 
09:10	38.3	38.3	38.3	57	24.4	3	6	315	0.00	30.239 
09:15	38.2	38.2	38.2	57	24.3	2	5	292	0.00	30.242 
09:20	38.8	38.8	38.8	58	25.3	2	5	292	0.00	30.242 
09:25	38.8	38.8	38.8	58	25.3	3	9	270	0.00	30.242 
09:30	38.9	38.9	38.9	57	25.0	3	6	338	0.00	30.244 
09:35	39.2	39.2	39.2	55	24.4	2	5	338	0.00	30.244 
09:40	39.9	39.9	39.9	57	25.9	2	5	292	0.00	30.244 
09:45	39.9	39.9	39.9	56	25.5	2	6	270	0.00	30.243 
09:50	40.2	40.2	40.2	55	25.3	2	4	292	0.00	30.243 
09:55	40.3	40.3	40.3	49	22.7	3	6	270	0.00	30.243 
10:00	40.3	40.3	40.3	55	25.4	3	9	292	0.00	30.243 
10:05	40.5	40.5	40.5	50	23.3	3	6	22	0.00	30.243 
10:10	40.8	40.8	40.8	48	22.6	2	6	270	0.00	30.243 
10:15	41.3	41.3	41.3	49	23.6	2	5	292	0.00	30.243 
10:20	41.3	41.3	41.3	51	24.6	2	5	292	0.00	30.243 
10:25	41.6	41.6	41.6	50	24.4	3	6	270	0.00	30.243 
10:30	41.5	41.5	41.5	49	23.8	2	6	338	0.00	30.246 
10:35	41.3	41.3	41.3	49	23.6	3	7	0	0.00	30.246 
10:40	40.6	40.6	40.6	48	22.5	3	8	338	0.00	30.246 
10:45	40.3	40.3	40.3	49	22.7	3	9	292	0.00	30.252 
10:50	40.8	40.8	40.8	50	23.6	2	3	22	0.00	30.252 
10:55	41.5	41.5	41.5	50	24.3	2	4	315	0.00	30.252 
11:00	42.1	42.1	42.1	47	23.3	2	5	292	0.00	30.248 
11:05	42.3	42.3	42.3	50	25.0	2	5	270	0.00	30.248 
11:10	42.6	42.6	42.6	48	24.3	2	4	338	0.00	30.248 
11:15	42.9	42.9	42.9	44	22.5	3	9	270	0.00	30.246 
11:20	42.8	42.8	42.8	44	22.4	2	9	315	0.00	30.246 
11:25	41.6	41.6	41.6	50	24.4	3	5	338	0.00	30.246 
11:30	40.2	40.2	40.2	52	24.0	2	5	22	0.00	30.255 
11:35	39.8	39.8	39.8	54	24.5	2	5	22	0.00	30.255 
11:40	39.3	39.3	39.3	52	23.2	2	5	338	0.00	30.255 
11:45	39.3	39.3	39.3	52	23.2	2	5	0	0.00	30.259 
11:50	39.8	39.8	39.8	52	23.6	2	6	270	0.00	30.259 
11:55	39.9	39.9	39.9	49	22.3	2	5	292	0.00	30.259 
12:00	39.9	39.9	39.9	51	23.3	2	7	315	0.00	30.258 
12:05	39.9	39.9	39.9	51	23.3	2	5	338	0.00	30.258 
12:10	40.1	40.1	40.1	50	23.0	2	6	22	0.00	30.258 
12:15	40.2	40.2	40.2	48	22.1	2	6	315	0.00	30.257 
12:20	40.2	40.2	40.2	51	23.5	3	9	315	0.00	30.257 
12:25	40.1	40.1	40.1	50	23.0	3	7	270	0.00	30.257 
12:30	39.6	39.6	39.6	51	23.0	2	5	0	0.00	30.259 
12:35	39.9	39.9	39.9	52	23.7	1	4	0	0.00	30.259 
12:40	39.8	39.8	39.8	48	21.7	2	5	338	0.00	30.259 
12:45	39.8	39.8	39.8	49	22.2	2	4	338	0.00	30.257 
12:50	40.1	40.1	40.1	49	22.5	2	6	292	0.00	30.257 
12:55	39.8	39.8	39.8	50	22.7	1	5	315	0.00	30.257 
13:00	39.9	39.9	39.9	49	22.3	2	5	248	0.00	30.257 
13:05	40.3	40.3	40.3	48	22.2	2	5	270	0.00	30.257 
13:10	40.8	40.8	40.8	49	23.1	2	4	270	0.00	30.257 
13:15	41.1	41.1	41.1	47	22.4	2	3	315	0.00	30.257 
13:20	41.2	41.2	41.2	44	21.0	1	4	248	0.00	30.257 
13:25	41.3	41.3	41.3	45	21.6	1	2	225	0.00	30.257 
13:30	41.9	41.9	41.9	49	24.1	1	4	225	0.00	30.250 
13:35	41.6	41.6	41.6	44	21.3	1	4	270	0.00	30.250 
13:40	41.1	41.1	41.1	46	21.9	2	5	292	0.00	30.250 
13:45	40.6	40.6	40.6	46	21.5	1	3	338	0.00	30.245 
13:50	40.6	40.6	40.6	46	21.5	2	4	338	0.00	30.245 
13:55	40.6	40.6	40.6	48	22.5	1	4	270	0.00	30.245 
14:00	40.8	40.8	40.8	47	22.1	1	3	292	0.00	30.242 
14:05	40.8	40.8	40.8	49	23.1	2	4	270	0.00	30.242 
14:10	40.6	40.6	40.6	49	23.0	1	3	315	0.00	30.242 
14:15	40.5	40.5	40.5	49	22.9	2	4	270	0.00	30.241 
14:20	40.3	40.3	40.3	51	23.6	1	3	338	0.00	30.241 
14:25	40.3	40.3	40.3	51	23.6	1	4	315	0.00	30.241 
14:30	39.9	39.9	39.9	51	23.3	1	4	338	0.00	30.242 
14:35	39.9	39.9	39.9	50	22.8	1	3	22	0.00	30.242 
14:40	40.1	40.1	40.1	51	23.4	2	4	338	0.00	30.242 
14:45	40.2	40.2	40.2	50	23.1	2	6	248	0.00	30.243 
14:50	40.2	40.2	40.2	50	23.1	1	4	270	0.00	30.243 
14:55	40.2	40.2	40.2	50	23.1	2	5	248	0.00	30.243 
15:00	40.2	40.2	40.2	50	23.1	2	5	248	0.00	30.243 
15:05	40.1	40.1	40.1	50	23.0	3	7	248	0.00	30.243 
15:10	40.2	40.2	40.2	50	23.1	1	3	248	0.00	30.243 
15:15	40.5	40.5	40.5	49	22.9	2	3	292	0.00	30.241 
15:20	40.5	40.5	40.5	50	23.3	1	5	315	0.00	30.241 
15:25	40.5	40.5	40.5	51	23.8	2	5	270	0.00	30.241 
15:30	40.6	40.6	40.6	51	23.9	1	4	315	0.00	30.241 
15:35	40.9	40.9	40.9	50	23.7	2	4	248	0.00	30.241 
15:40	41.1	41.1	41.1	50	23.9	2	6	248	0.00	30.241 
15:45	41.6	41.6	41.6	47	22.9	2	4	248	0.00	30.238 
15:50	42.5	42.5	42.5	46	23.2	2	6	248	0.00	30.238 
15:55	42.2	42.2	42.2	46	22.9	1	4	292	0.00	30.238 
16:00	42.5	42.5	42.5	46	23.2	2	6	248	0.00	30.233 
16:05	43.3	43.3	43.3	45	23.4	3	7	248	0.00	30.233 
16:10	43.3	43.3	43.3	44	22.9	2	5	248	0.00	30.233 
16:15	42.9	42.9	42.9	43	22.0	1	5	248	0.00	30.234 
16:20	42.6	42.6	42.6	44	22.2	3	6	248	0.00	30.234 
16:25	42.8	42.8	42.8	44	22.4	1	2	248	0.00	30.234 
16:30	42.9	42.9	42.9	45	23.0	2	5	248	0.00	30.233 
16:35	43.1	43.1	43.1	44	22.7	2	4	248	0.00	30.233 
16:40	43.3	43.3	43.3	43	22.3	2	5	315	0.00	30.233 
16:45	43.6	43.6	43.6	45	23.7	2	5	248	0.00	30.229 
16:50	43.3	43.3	43.3	43	22.3	1	3	292	0.00	30.229 
16:55	42.9	42.9	42.9	45	23.0	1	5	248	0.00	30.229 
17:00	42.8	42.8	42.8	42	21.3	1	4	248	0.00	30.225 
17:05	43.1	43.1	43.1	45	23.2	2	5	270	0.00	30.225 
17:10	43.2	43.2	43.2	42	21.7	3	6	248	0.00	30.225 
17:15	43.3	43.3	43.3	43	22.3	1	3	248	0.00	30.226 
17:20	43.5	43.5	43.5	40	20.8	1	4	248	0.00	30.226 
17:25	43.2	43.2	43.2	42	21.7	2	6	270	0.00	30.226 
17:30	42.8	42.8	42.8	43	21.9	1	2	270	0.00	30.226 
17:35	42.3	42.3	42.3	43	21.4	1	3	0	0.00	30.226 
17:40	42.1	42.1	42.1	43	21.2	0	2	0	0.00	30.226 
17:45	41.9	41.9	41.9	43	21.1	0	2	0	0.00	30.227 
17:50	41.8	41.8	41.8	43	21.0	0	1	0	0.00	30.227 
17:55	41.6	41.6	41.6	44	21.3	0	2	338	0.00	30.227 
18:00	41.6	41.6	41.6	45	21.9	1	3	292	0.00	30.228 
18:05	41.6	41.6	41.6	44	21.3	0	3	248	0.00	30.228 
18:10	41.6	41.6	41.6	43	20.8	0	2	270	0.00	30.228 
18:15	41.5	41.5	41.5	44	21.2	0	1	270	0.00	30.228 
18:20	41.3	41.3	41.3	45	21.6	0	3	248	0.00	30.228 
18:25	41.2	41.2	41.2	44	21.0	1	3	292	0.00	30.228 
18:30	41.1	41.1	41.1	45	21.4	0	2	292	0.00	30.233 
18:35	40.9	40.9	40.9	44	20.7	0	2	292	0.00	30.233 
18:40	40.6	40.6	40.6	45	20.9	0	1	292	0.00	30.233 
18:45	40.5	40.5	40.5	45	20.8	0	1	292	0.00	30.232 
18:50	40.2	40.2	40.2	46	21.1	0	0	---	0.00	30.232 
18:55	39.8	39.8	39.8	46	20.7	0	0	---	0.00	30.232 
19:00	39.5	39.5	39.5	46	20.5	0	0	---	0.00	30.231 
19:05	39.1	39.1	39.1	47	20.6	0	0	---	0.00	30.231 
19:10	38.6	38.6	38.6	48	20.6	0	0	---	0.00	30.231 
19:15	38.2	38.2	38.2	49	20.7	0	0	---	0.00	30.236 
19:20	37.9	37.9	37.9	50	20.9	0	0	---	0.00	30.236 
19:25	37.5	37.5	37.5	51	21.0	0	0	---	0.00	30.236 
19:30	36.9	36.9	36.9	52	20.9	0	0	---	0.00	30.242 
19:35	36.2	36.2	36.2	53	20.7	0	0	---	0.00	30.242 
19:40	35.9	35.9	35.9	54	20.9	0	0	---	0.00	30.242 
19:45	35.6	35.6	35.6	55	21.0	0	0	---	0.00	30.245 
19:50	35.3	35.3	35.3	56	21.2	0	0	---	0.00	30.245 
19:55	34.9	34.9	34.9	57	21.2	0	0	---	0.00	30.245 
20:00	34.7	34.7	34.7	57	21.0	0	0	---	0.00	30.249 
20:05	34.4	34.4	34.4	58	21.2	0	0	---	0.00	30.249 
20:10	34.3	34.3	34.3	58	21.1	0	0	---	0.00	30.249 
20:15	34.1	34.1	34.1	58	20.9	0	0	---	0.00	30.252 
20:20	33.8	33.8	33.8	59	21.0	0	0	---	0.00	30.252 
20:25	33.8	33.8	33.8	58	20.6	0	1	292	0.00	30.252 
20:30	33.8	33.8	33.8	58	20.6	0	0	---	0.00	30.256 
20:35	33.8	33.8	33.8	58	20.6	0	0	---	0.00	30.256 
20:40	33.7	33.7	33.7	58	20.5	0	0	---	0.00	30.256 
20:45	33.5	33.5	33.5	58	20.3	0	0	---	0.00	30.259 
20:50	33.2	33.2	33.2	59	20.4	0	0	---	0.00	30.259 
20:55	33.1	33.1	33.1	60	20.7	0	0	---	0.00	30.259 
21:00	32.9	32.9	32.9	60	20.6	0	0	---	0.00	30.262 
21:05	32.8	32.8	32.8	61	20.9	0	0	---	0.00	30.262 
21:10	32.7	32.7	32.7	62	21.1	0	0	---	0.00	30.262 
21:15	32.5	32.5	32.5	62	20.9	0	0	---	0.00	30.262 
21:20	32.4	32.4	32.4	62	20.9	0	0	---	0.00	30.262 
21:25	32.1	32.1	32.1	63	20.9	0	0	---	0.00	30.262 
21:30	31.8	31.8	31.8	64	21.0	0	0	---	0.00	30.265 
21:35	31.5	31.5	31.5	65	21.1	0	0	---	0.00	30.265 
21:40	31.2	31.2	31.2	65	20.8	0	0	---	0.00	30.265 
21:45	30.9	30.9	30.9	65	20.5	0	0	---	0.00	30.270 
21:50	30.6	30.6	30.6	66	20.6	0	0	---	0.00	30.270 
21:55	30.4	30.4	30.4	67	20.8	0	0	---	0.00	30.270 
22:00	30.4	30.4	30.4	67	20.8	0	0	---	0.00	30.268 
22:05	30.1	30.1	30.1	67	20.5	0	0	---	0.00	30.268 
22:10	29.8	29.8	29.8	68	20.5	0	0	---	0.00	30.268 
22:15	29.5	29.5	29.5	69	20.6	0	0	---	0.00	30.269 
22:20	29.4	29.4	29.4	69	20.5	0	0	---	0.00	30.269 
22:25	29.1	29.1	29.1	70	20.6	0	0	---	0.00	30.269 
22:30	29.0	29.0	29.0	71	20.8	0	0	---	0.00	30.269 
22:35	29.1	29.1	29.1	71	20.9	0	0	---	0.00	30.269 
22:40	29.0	29.0	29.0	70	20.5	0	0	---	0.00	30.269 
22:45	28.8	28.8	28.8	71	20.6	0	0	---	0.00	30.272 
22:50	28.5	28.5	28.5	72	20.6	0	0	---	0.00	30.272 
22:55	28.5	28.5	28.5	72	20.6	0	0	---	0.00	30.272 
23:00	28.5	28.5	28.5	71	20.3	0	0	---	0.00	30.269 
23:05	28.5	28.5	28.5	72	20.6	0	0	---	0.00	30.269 
23:10	28.2	28.2	28.2	72	20.4	0	0	---	0.00	30.269 
23:15	28.1	28.1	28.1	73	20.6	0	0	---	0.00	30.270 
23:20	27.8	27.8	27.8	73	20.3	0	0	---	0.00	30.270 
23:25	27.5	27.5	27.5	74	20.3	0	0	---	0.00	30.270 
23:30	27.2	27.2	27.2	74	20.0	0	0	---	0.00	30.273 
23:35	26.9	26.9	26.9	75	20.1	0	0	---	0.00	30.273 
23:40	26.7	26.7	26.7	77	20.5	0	0	---	0.00	30.273 
23:45	26.6	26.6	26.6	77	20.4	0	0	---	0.00	30.275 
23:50	26.6	26.6	26.6	77	20.4	0	0	---	0.00	30.275 
23:55	26.6	26.6	26.6	77	20.4	0	0	---	0.00	30.275 

CoCoRaHS
IN-AL-39
A2 Web Hosting
Creative Commons License
GoDaddy
Look for:

loaded 2017-10-18 07:40:48 • last modified 2010-11-18 10:43:29
Privacy PolicyDisclaimer
• wx.awcolley.com is powered by PmWiki v.2002016 •
• all content (unless otherwise noted) © 2017 A W Colley